Time;durP1;ratioP1;P1;durP2;ratioP2;P2;SDS_P1;SDS_P2;PMS_P1;PMS_P2;Temp;Humidity;BMP_temperature;BMP_pressure;BME280_temperature;BME280_humidity;BME280_pressure;Samples;Min_cycle;Max_cycle;Signal;HPM_P1;HPM_P2
2021/01/05 00:00:23;;;;;;;15.07;13.27;;;3.60;99.90;;;;;;6155243;23;20036;-87
2021/01/05 00:02:52;;;;;;;18.35;13.18;;;3.60;99.90;;;;;;6156038;23;20449;-86
2021/01/05 00:05:21;;;;;;;15.90;13.97;;;3.60;99.90;;;;;;6155778;23;20014;-87
2021/01/05 00:07:49;;;;;;;18.13;14.10;;;3.50;99.90;;;;;;6155759;23;20334;-87
2021/01/05 00:10:16;;;;;;;15.88;13.38;;;3.50;99.90;;;;;;6155553;23;20014;-88
2021/01/05 00:12:43;;;;;;;18.48;14.55;;;3.50;99.90;;;;;;6155372;23;20072;-88
2021/01/05 00:15:12;;;;;;;16.88;14.25;;;3.40;99.90;;;;;;6155725;23;20025;-87
2021/01/05 00:17:39;;;;;;;16.52;14.10;;;3.40;99.90;;;;;;6157099;23;20084;-87
2021/01/05 00:20:13;;;;;;;15.70;13.30;;;3.40;99.90;;;;;;6156475;23;20017;-88
2021/01/05 00:22:40;;;;;;;18.92;14.82;;;3.40;99.90;;;;;;6155035;23;20024;-87
2021/01/05 00:25:08;;;;;;;18.27;13.63;;;3.40;99.90;;;;;;6154900;23;20013;-87
2021/01/05 00:27:35;;;;;;;17.80;14.70;;;3.40;99.90;;;;;;6155503;23;20018;-87
2021/01/05 00:30:11;;;;;;;19.77;14.55;;;3.30;99.90;;;;;;6155672;23;20018;-87
2021/01/05 00:32:41;;;;;;;16.63;14.40;;;3.30;99.90;;;;;;6156620;23;20022;-87
2021/01/05 00:35:10;;;;;;;17.98;14.27;;;3.30;99.90;;;;;;6155227;23;20026;-87
2021/01/05 00:37:37;;;;;;;17.98;14.27;;;3.30;99.90;;;;;;6155036;23;20460;-87
2021/01/05 00:40:06;;;;;;;17.45;14.63;;;3.30;99.90;;;;;;6154718;23;20025;-86
2021/01/05 00:42:32;;;;;;;20.98;14.98;;;3.30;99.90;;;;;;6156374;23;20018;-87
2021/01/05 00:44:59;;;;;;;18.85;14.93;;;3.30;99.90;;;;;;6154306;23;20334;-87
2021/01/05 00:47:25;;;;;;;17.23;14.70;;;3.30;99.90;;;;;;6155294;23;20024;-87
2021/01/05 00:49:52;;;;;;;20.63;14.95;;;3.30;99.90;;;;;;6154991;23;20460;-88
2021/01/05 00:52:18;;;;;;;19.67;15.15;;;3.30;99.90;;;;;;6154886;23;20017;-87
2021/01/05 00:54:45;;;;;;;18.08;15.02;;;3.30;99.90;;;;;;6155159;23;20069;-87
2021/01/05 00:57:11;;;;;;;20.85;15.65;;;3.20;99.90;;;;;;6154859;23;20028;-87
2021/01/05 00:59:38;;;;;;;21.40;15.95;;;3.20;99.90;;;;;;6155697;23;20025;-87
2021/01/05 01:02:05;;;;;;;21.58;16.73;;;3.20;99.90;;;;;;6156557;23;20021;-87
2021/01/05 01:04:32;;;;;;;19.77;16.25;;;3.10;99.90;;;;;;6154960;23;20021;-87
2021/01/05 01:06:59;;;;;;;23.85;17.35;;;3.10;99.90;;;;;;6154859;23;20369;-87
2021/01/05 01:09:27;;;;;;;21.25;17.23;;;3.10;99.90;;;;;;6155395;23;20057;-87
2021/01/05 01:12:22;;;;;;;19.60;16.08;;;3.00;99.90;;;;;;6154761;23;20022;-87
2021/01/05 01:14:51;;;;;;;19.95;16.20;;;3.00;99.90;;;;;;6154590;23;20017;-87
2021/01/05 01:17:18;;;;;;;21.88;16.17;;;3.00;99.90;;;;;;6156320;23;20014;-87
2021/01/05 01:19:45;;;;;;;20.98;16.40;;;3.00;99.90;;;;;;6155071;23;20100;-87
2021/01/05 01:22:12;;;;;;;21.83;17.38;;;3.00;99.90;;;;;;6156584;23;20026;-87
2021/01/05 01:24:38;;;;;;;20.40;16.27;;;2.90;99.90;;;;;;6156814;23;20017;-87
2021/01/05 01:27:17;;;;;;;21.33;16.35;;;2.90;99.90;;;;;;6156258;23;20060;-87
2021/01/05 01:29:44;;;;;;;21.67;16.80;;;2.80;99.90;;;;;;6156542;23;20025;-87
2021/01/05 01:32:11;;;;;;;22.90;17.15;;;2.80;99.90;;;;;;6154963;23;20021;-87
2021/01/05 01:34:37;;;;;;;23.42;17.63;;;2.80;99.90;;;;;;6154271;23;20045;-87
2021/01/05 01:37:12;;;;;;;21.08;17.30;;;2.80;99.90;;;;;;6155551;23;20013;-87
2021/01/05 01:39:40;;;;;;;23.30;17.98;;;2.70;99.90;;;;;;6154416;23;20017;-87
2021/01/05 01:42:08;;;;;;;23.63;18.30;;;2.70;99.90;;;;;;6154509;23;20075;-87
2021/01/05 01:44:38;;;;;;;25.98;17.80;;;2.70;99.90;;;;;;6153723;23;20017;-87
2021/01/05 01:47:07;;;;;;;23.95;17.90;;;2.60;99.90;;;;;;6154864;23;20303;-87
2021/01/05 01:49:34;;;;;;;23.50;17.33;;;2.60;99.90;;;;;;6154527;23;20029;-87
2021/01/05 01:52:01;;;;;;;23.25;18.05;;;2.60;99.90;;;;;;6154226;23;20029;-87
2021/01/05 01:55:09;;;;;;;24.73;17.48;;;2.50;99.90;;;;;;6154404;23;20018;-87
2021/01/05 01:57:55;;;;;;;22.95;17.15;;;2.50;99.90;;;;;;6099670;23;20089;-88
2021/01/05 02:00:21;;;;;;;27.33;18.38;;;2.50;99.90;;;;;;6099412;23;20017;-87
2021/01/05 02:03:02;;;;;;;25.33;18.52;;;2.40;99.90;;;;;;6099617;23;20021;-88
2021/01/05 02:05:35;;;;;;;26.33;17.90;;;2.40;99.90;;;;;;6099636;23;20442;-87
2021/01/05 02:08:33;;;;;;;24.65;18.52;;;2.40;99.90;;;;;;6123336;23;20026;-87
2021/01/05 02:11:20;;;;;;;27.05;17.70;;;2.30;99.90;;;;;;6120989;23;20025;-87
2021/01/05 02:14:16;;;;;;;25.30;17.83;;;2.30;99.90;;;;;;6123438;23;20021;-86
2021/01/05 02:17:06;;;;;;;25.30;17.98;;;2.30;99.90;;;;;;6099414;23;20018;-87
2021/01/05 02:19:44;;;;;;;23.73;17.38;;;2.30;99.90;;;;;;6099126;23;20304;-88
2021/01/05 02:22:38;;;;;;;25.67;18.33;;;2.20;99.90;;;;;;6099343;23;20029;-87
2021/01/05 02:25:54;;;;;;;24.42;17.63;;;2.20;99.90;;;;;;6099090;23;20028;-87
2021/01/05 02:28:27;;;;;;;25.48;17.85;;;2.20;99.90;;;;;;6041773;23;20030;-87
2021/01/05 02:31:03;;;;;;;26.40;18.67;;;2.20;99.90;;;;;;6041611;23;20023;-87
2021/01/05 02:33:40;;;;;;;25.60;18.17;;;2.20;99.90;;;;;;6041758;23;20015;-87
2021/01/05 02:36:38;;;;;;;26.60;18.67;;;2.20;99.90;;;;;;6041605;23;20029;-87
2021/01/05 02:39:23;;;;;;;26.08;18.75;;;2.20;99.90;;;;;;6013340;23;20026;-87
2021/01/05 02:41:54;;;;;;;27.30;18.35;;;2.20;99.90;;;;;;6013465;23;20448;-87
2021/01/05 02:44:51;;;;;;;26.17;18.17;;;2.20;99.90;;;;;;6036443;23;20023;-88
2021/01/05 02:47:30;;;;;;;24.77;17.80;;;2.10;99.90;;;;;;6012945;23;20023;-87
2021/01/05 02:50:02;;;;;;;;;;;2.10;99.90;;;;;;6037048;23;20116;-87
2021/01/05 02:52:52;;;;;;;24.92;17.08;;;2.10;99.90;;;;;;6036732;23;19918;-87
2021/01/05 02:55:22;;;;;;;23.17;17.50;;;2.10;99.90;;;;;;6037385;23;20023;-87
2021/01/05 02:58:05;;;;;;;27.05;18.35;;;2.00;99.90;;;;;;6038982;23;20020;-87
2021/01/05 03:00:35;;;;;;;24.77;17.13;;;2.00;99.90;;;;;;6015185;23;20023;-88
2021/01/05 03:03:34;;;;;;;26.90;18.65;;;2.00;99.90;;;;;;6038842;23;20024;-87
2021/01/05 03:06:23;;;;;;;26.25;17.50;;;2.00;99.90;;;;;;6072636;23;20062;-87
2021/01/05 03:09:01;;;;;;;25.80;18.30;;;2.00;99.90;;;;;;6073247;23;20037;-87
2021/01/05 03:11:49;;;;;;;26.05;17.95;;;2.00;99.90;;;;;;6072891;23;20358;-87
2021/01/05 03:14:37;;;;;;;25.88;17.85;;;2.00;99.90;;;;;;6086320;23;20122;-87
2021/01/05 03:17:35;;;;;;;23.77;17.23;;;2.00;99.90;;;;;;6153473;23;20018;-87
2021/01/05 03:20:22;;;;;;;25.30;18.30;;;1.90;99.90;;;;;;6157677;23;20100;-87
2021/01/05 03:23:03;;;;;;;25.80;17.98;;;1.90;99.90;;;;;;6156250;23;20028;-87
2021/01/05 03:25:33;;;;;;;23.98;17.40;;;1.90;99.90;;;;;;6155735;23;20021;-87
2021/01/05 03:28:03;;;;;;;23.73;17.77;;;1.90;99.90;;;;;;6155787;23;20017;-88
2021/01/05 03:30:37;;;;;;;25.08;17.73;;;1.90;99.90;;;;;;6155941;23;20017;-88
2021/01/05 03:33:04;;;;;;;23.08;16.98;;;1.90;99.90;;;;;;6156053;23;20329;-87
2021/01/05 03:35:31;;;;;;;27.13;18.77;;;1.90;99.90;;;;;;6155975;23;20533;-87
2021/01/05 03:37:58;;;;;;;22.88;17.40;;;2.00;99.90;;;;;;6157073;23;20426;-87
2021/01/05 03:40:25;;;;;;;22.80;17.13;;;2.00;99.90;;;;;;6157004;23;20307;-87
2021/01/05 03:42:52;;;;;;;23.95;17.13;;;2.00;99.90;;;;;;6155830;23;20021;-87
2021/01/05 03:45:28;;;;;;;22.42;16.30;;;2.00;99.90;;;;;;6154922;23;20013;-88
2021/01/05 03:47:55;;;;;;;23.35;16.38;;;2.10;99.90;;;;;;6155502;23;20453;-87
2021/01/05 03:50:23;;;;;;;23.33;16.20;;;2.10;99.90;;;;;;6157291;23;20014;-87
2021/01/05 03:52:49;;;;;;;24.42;16.33;;;2.10;99.90;;;;;;6156881;23;20084;-87
2021/01/05 03:55:17;;;;;;;22.95;16.60;;;2.20;99.90;;;;;;6155317;23;20018;-87
2021/01/05 03:57:44;;;;;;;22.63;16.25;;;2.20;99.90;;;;;;6155688;23;20025;-87
2021/01/05 04:00:18;;;;;;;21.05;15.30;;;2.20;99.90;;;;;;6157358;23;20337;-87
2021/01/05 04:02:45;;;;;;;23.10;16.33;;;2.20;99.90;;;;;;6156055;23;20104;-87
2021/01/05 04:05:14;;;;;;;22.83;15.73;;;2.20;99.90;;;;;;6155213;23;20018;-87
2021/01/05 04:07:40;;;;;;;20.77;15.52;;;2.30;99.90;;;;;;6155152;23;20021;-88
2021/01/05 04:10:09;;;;;;;21.63;16.23;;;2.30;99.90;;;;;;6155594;23;20052;-87
2021/01/05 04:12:36;;;;;;;20.85;15.73;;;2.30;99.90;;;;;;6156851;23;20040;-87
2021/01/05 04:15:09;;;;;;;22.42;16.90;;;2.30;99.90;;;;;;6155384;23;20017;-87
2021/01/05 04:17:35;;;;;;;23.65;17.58;;;2.30;99.90;;;;;;6157090;23;20036;-87
2021/01/05 04:20:05;;;;;;;21.85;16.60;;;2.30;99.90;;;;;;6155230;23;20516;-87
2021/01/05 04:22:32;;;;;;;24.85;18.02;;;2.30;99.90;;;;;;6155900;23;20029;-88
2021/01/05 04:24:58;;;;;;;23.58;17.60;;;2.30;99.90;;;;;;6155530;23;20021;-88
2021/01/05 04:27:25;;;;;;;24.40;17.35;;;2.40;99.90;;;;;;6155169;23;20381;-87
2021/01/05 04:29:52;;;;;;;24.50;17.40;;;2.40;99.90;;;;;;6155119;23;20017;-87
2021/01/05 04:32:19;;;;;;;24.17;17.05;;;2.40;99.90;;;;;;6155867;23;20096;-87
2021/01/05 04:34:46;;;;;;;24.13;17.35;;;2.40;99.90;;;;;;6154944;23;20378;-87
2021/01/05 04:37:12;;;;;;;25.65;17.90;;;2.40;99.90;;;;;;6154957;23;20342;-88
2021/01/05 04:39:41;;;;;;;25.00;18.25;;;2.40;99.90;;;;;;6155417;23;20017;-87
2021/01/05 04:42:26;;;;;;;23.17;16.52;;;2.40;99.90;;;;;;6155061;23;20020;-88
2021/01/05 04:45:00;;;;;;;23.55;17.10;;;2.40;99.90;;;;;;6154404;23;20021;-87
2021/01/05 04:48:04;;;;;;;26.17;17.55;;;2.40;99.90;;;;;;6155606;23;20017;-87
2021/01/05 04:50:46;;;;;;;26.50;17.38;;;2.40;99.90;;;;;;6156548;23;20021;-88
2021/01/05 04:53:15;;;;;;;27.77;18.05;;;2.40;99.90;;;;;;6156234;23;20028;-87
2021/01/05 04:55:59;;;;;;;29.98;18.77;;;2.40;99.90;;;;;;6154738;23;20017;-87
2021/01/05 04:58:52;;;;;;;27.65;17.73;;;2.40;99.90;;;;;;6154803;23;20017;-87
2021/01/05 05:01:28;;;;;;;25.67;17.17;;;2.40;99.90;;;;;;6144524;23;20021;-88
2021/01/05 05:04:06;;;;;;;27.75;18.52;;;2.40;99.90;;;;;;6159309;23;20076;-89
2021/01/05 05:07:07;;;;;;;28.67;18.83;;;2.40;99.90;;;;;;6156806;23;20018;-87
2021/01/05 05:09:54;;;;;;;27.17;17.85;;;2.40;99.90;;;;;;6155456;23;20018;-86
2021/01/05 05:12:56;;;;;;;28.42;18.88;;;2.30;99.90;;;;;;6154904;23;20457;-87
2021/01/05 05:16:07;;;;;;;26.50;17.05;;;2.30;99.90;;;;;;6155079;23;20025;-89
2021/01/05 05:18:49;;;;;;;26.50;17.45;;;2.30;99.90;;;;;;6151405;23;20072;-87
2021/01/05 05:21:43;;;;;;;29.20;17.67;;;2.30;99.90;;;;;;6154854;23;20022;-89
2021/01/05 05:24:22;;;;;;;26.67;17.42;;;2.30;99.90;;;;;;6154495;23;20022;-88
2021/01/05 05:27:24;;;;;;;;;;;2.30;99.90;;;;;;6155509;23;20018;-86
2021/01/05 05:30:11;;;;;;;24.02;16.17;;;2.20;99.90;;;;;;6042184;23;20255;-89
2021/01/05 05:32:56;;;;;;;27.33;17.33;;;2.20;99.90;;;;;;6042471;23;20029;-89
2021/01/05 05:35:23;;;;;;;26.95;17.35;;;2.20;99.90;;;;;;6066263;23;20058;-89
2021/01/05 05:38:24;;;;;;;24.63;16.45;;;2.20;99.90;;;;;;6042641;23;20041;-88
2021/01/05 05:41:01;;;;;;;26.30;17.30;;;2.20;99.90;;;;;;6009741;23;20036;-86
2021/01/05 05:43:53;;;;;;;25.48;16.85;;;2.20;99.90;;;;;;6008228;23;20464;-89
2021/01/05 05:46:28;;;;;;;25.92;16.83;;;2.20;99.90;;;;;;5985312;23;20020;-87
2021/01/05 05:49:05;;;;;;;30.08;17.25;;;2.10;99.90;;;;;;5985478;23;20464;-87
2021/01/05 05:51:40;;;;;;;25.88;17.65;;;2.10;99.90;;;;;;5985080;23;20028;-87
2021/01/05 05:54:15;;;;;;;23.00;16.67;;;2.10;99.90;;;;;;5985242;23;20117;-87
2021/01/05 05:57:15;;;;;;;28.55;17.88;;;2.10;99.90;;;;;;5985751;23;20027;-88
2021/01/05 05:59:51;;;;;;;29.63;17.70;;;2.10;99.90;;;;;;6010155;23;20024;-87
2021/01/05 06:02:21;;;;;;;30.52;18.70;;;2.10;99.90;;;;;;6011219;23;20515;-86
2021/01/05 06:04:48;;;;;;;30.77;18.55;;;2.10;99.90;;;;;;6059461;23;20122;-85
2021/01/05 06:07:15;;;;;;;29.88;20.02;;;2.10;99.90;;;;;;6042066;23;20022;-87
2021/01/05 06:09:41;;;;;;;26.23;17.55;;;2.10;99.90;;;;;;6042073;23;20530;-85
2021/01/05 06:12:09;;;;;;;28.02;18.00;;;2.10;99.90;;;;;;6041680;23;20026;-88
2021/01/05 06:14:35;;;;;;;26.40;17.42;;;2.10;99.90;;;;;;6042121;23;20082;-87
2021/01/05 06:17:02;;;;;;;27.25;17.80;;;2.10;99.90;;;;;;6133952;23;20080;-86
2021/01/05 06:19:28;;;;;;;27.88;18.42;;;2.10;99.90;;;;;;6154939;23;20025;-86
2021/01/05 06:21:55;;;;;;;28.27;18.73;;;2.10;99.90;;;;;;6156187;23;20087;-86
2021/01/05 06:24:21;;;;;;;26.25;18.08;;;2.10;99.90;;;;;;6155164;23;20025;-86
2021/01/05 06:26:48;;;;;;;27.40;18.08;;;2.10;99.90;;;;;;6154842;23;20072;-85
2021/01/05 06:29:14;;;;;;;30.27;19.05;;;2.10;99.90;;;;;;6154086;23;20017;-86
2021/01/05 06:31:41;;;;;;;28.90;19.20;;;2.10;99.90;;;;;;6154721;23;20053;-86
2021/01/05 06:34:07;;;;;;;27.25;18.40;;;2.00;99.90;;;;;;6156277;23;20018;-86
2021/01/05 06:36:34;;;;;;;28.50;19.00;;;2.10;99.90;;;;;;6155412;23;20041;-85
2021/01/05 06:39:00;;;;;;;26.17;18.23;;;2.10;99.90;;;;;;6156468;23;20379;-90
2021/01/05 06:41:27;;;;;;;30.58;18.23;;;2.10;99.90;;;;;;6154757;23;20101;-86
2021/01/05 06:43:53;;;;;;;31.35;18.77;;;2.10;99.90;;;;;;6154388;23;20370;-87
2021/01/05 06:46:21;;;;;;;30.60;18.70;;;2.10;99.90;;;;;;6154045;23;20020;-86
2021/01/05 06:48:47;;;;;;;28.70;18.65;;;2.10;99.90;;;;;;6155353;23;20022;-87
2021/01/05 06:51:14;;;;;;;31.08;20.27;;;2.10;99.90;;;;;;6153909;23;20018;-87
2021/01/05 06:53:41;;;;;;;32.28;19.30;;;2.10;99.90;;;;;;6154468;23;20457;-87
2021/01/05 06:56:10;;;;;;;32.20;19.45;;;2.10;99.90;;;;;;6155056;23;20018;-89
2021/01/05 06:58:37;;;;;;;32.30;19.38;;;2.10;99.90;;;;;;6154329;23;20453;-87
2021/01/05 07:01:03;;;;;;;33.47;19.92;;;2.20;99.90;;;;;;6155553;23;20026;-87
2021/01/05 07:03:30;;;;;;;34.70;19.63;;;2.20;99.90;;;;;;6155207;23;20499;-87
2021/01/05 07:05:56;;;;;;;32.85;19.55;;;2.20;99.90;;;;;;6155700;23;20327;-87
2021/01/05 07:08:25;;;;;;;34.50;19.60;;;2.20;99.90;;;;;;6154407;23;20021;-87
2021/01/05 07:10:51;;;;;;;34.55;20.83;;;2.20;99.90;;;;;;6155851;23;20456;-87
2021/01/05 07:13:18;;;;;;;31.25;20.45;;;2.30;99.90;;;;;;6154453;23;20096;-88
2021/01/05 07:15:47;;;;;;;32.00;20.50;;;2.30;99.90;;;;;;6154180;23;20021;-91
2021/01/05 07:18:13;;;;;;;35.58;21.33;;;2.30;99.90;;;;;;6155147;23;20017;-90
2021/01/05 07:20:53;;;;;;;34.78;20.50;;;2.30;99.90;;;;;;6155240;23;20461;-90
2021/01/05 07:23:19;;;;;;;35.55;19.90;;;2.30;99.90;;;;;;6154738;23;20024;-87
2021/01/05 07:25:46;;;;;;;38.67;22.27;;;2.20;99.90;;;;;;6154292;23;20022;-86
2021/01/05 07:28:13;;;;;;;36.53;21.48;;;2.20;99.90;;;;;;6152147;23;20017;-87
2021/01/05 07:30:39;;;;;;;38.35;21.38;;;2.30;99.90;;;;;;6152457;23;20024;-87
2021/01/05 07:33:06;;;;;;;32.45;20.38;;;2.30;99.90;;;;;;6152767;23;20017;-87
2021/01/05 07:35:32;;;;;;;38.25;22.15;;;2.30;99.90;;;;;;6153553;23;20017;-87
2021/01/05 07:37:59;;;;;;;38.28;22.27;;;2.30;99.90;;;;;;6153786;23;20014;-87
2021/01/05 07:40:25;;;;;;;39.25;22.15;;;2.30;99.90;;;;;;6152746;23;20460;-87
2021/01/05 07:42:51;;;;;;;38.03;21.42;;;2.30;99.90;;;;;;6155436;23;20024;-87
2021/01/05 07:45:21;;;;;;;35.33;21.55;;;2.30;99.90;;;;;;6154612;23;20068;-89
2021/01/05 07:47:49;;;;;;;36.00;22.70;;;2.30;99.90;;;;;;6157214;23;20018;-86
2021/01/05 07:50:20;;;;;;;34.28;20.50;;;2.30;99.90;;;;;;6155689;23;20021;-87
2021/01/05 07:52:46;;;;;;;37.78;22.80;;;2.30;99.90;;;;;;6156512;23;20465;-87
2021/01/05 07:55:18;;;;;;;38.63;21.77;;;2.30;99.90;;;;;;6155440;23;20021;-87
2021/01/05 07:57:45;;;;;;;36.22;21.63;;;2.30;99.90;;;;;;6156213;23;20018;-87
2021/01/05 08:00:15;;;;;;;34.28;22.13;;;2.30;99.90;;;;;;6155352;23;20401;-87
2021/01/05 08:02:42;;;;;;;39.30;22.23;;;2.30;99.90;;;;;;6155548;23;20018;-87
2021/01/05 08:05:14;;;;;;;34.67;21.30;;;2.30;99.90;;;;;;6155327;23;20021;-87
2021/01/05 08:07:41;;;;;;;34.15;21.08;;;2.30;99.90;;;;;;6156903;23;20028;-87
2021/01/05 08:10:09;;;;;;;36.58;21.60;;;2.30;99.90;;;;;;6157310;23;20058;-87
2021/01/05 08:12:35;;;;;;;37.70;23.02;;;2.30;99.90;;;;;;6156101;23;20026;-87
2021/01/05 08:15:03;;;;;;;37.00;22.13;;;2.20;99.90;;;;;;6155516;23;20032;-87
2021/01/05 08:17:30;;;;;;;36.15;21.35;;;2.20;99.90;;;;;;6156746;23;20017;-86
2021/01/05 08:19:57;;;;;;;38.60;22.75;;;2.20;99.90;;;;;;6155324;23;20449;-89
2021/01/05 08:22:24;;;;;;;39.03;23.10;;;2.30;99.90;;;;;;6154981;23;20072;-87
2021/01/05 08:24:54;;;;;;;32.40;20.00;;;2.30;99.90;;;;;;6155084;23;20014;-87
2021/01/05 08:27:21;;;;;;;34.97;21.27;;;2.30;99.90;;;;;;6155344;23;20454;-87
2021/01/05 08:29:47;;;;;;;32.17;20.63;;;2.30;99.90;;;;;;6155763;23;20018;-87
2021/01/05 08:32:14;;;;;;;32.88;20.65;;;2.30;99.90;;;;;;6155418;23;20018;-87
2021/01/05 08:34:40;;;;;;;34.95;21.92;;;2.30;99.90;;;;;;6155709;23;20048;-87
2021/01/05 08:37:07;;;;;;;31.35;20.00;;;2.30;99.90;;;;;;6155076;23;20511;-87
2021/01/05 08:39:33;;;;;;;29.65;18.92;;;2.40;99.90;;;;;;6155744;23;20101;-87
2021/01/05 08:42:00;;;;;;;29.48;19.60;;;2.40;99.90;;;;;;6155222;23;20024;-89
2021/01/05 08:44:26;;;;;;;32.28;20.75;;;2.50;99.90;;;;;;6154710;23;20376;-87
2021/01/05 08:47:01;;;;;;;27.15;19.17;;;2.50;99.90;;;;;;6155396;23;20056;-87
2021/01/05 08:49:28;;;;;;;33.50;20.23;;;2.50;99.90;;;;;;6155386;23;20081;-87
2021/01/05 08:51:56;;;;;;;29.70;19.55;;;2.60;99.90;;;;;;6157901;23;20076;-86
2021/01/05 08:54:23;;;;;;;28.23;19.77;;;2.60;99.90;;;;;;6171072;23;20047;-87
2021/01/05 08:56:59;;;;;;;26.25;17.77;;;2.60;99.90;;;;;;6159930;23;20017;-87
2021/01/05 08:59:27;;;;;;;27.02;18.50;;;2.70;99.90;;;;;;6155352;23;20013;-87
2021/01/05 09:01:53;;;;;;;24.95;17.30;;;2.70;99.90;;;;;;6154874;23;20037;-87
2021/01/05 09:04:20;;;;;;;23.95;16.70;;;2.80;99.90;;;;;;6155101;23;20021;-87
2021/01/05 09:06:54;;;;;;;21.40;15.43;;;2.80;99.90;;;;;;6154764;23;20460;-87
2021/01/05 09:09:21;;;;;;;20.02;14.27;;;2.90;99.90;;;;;;6155706;23;20024;-88
2021/01/05 09:11:52;;;;;;;19.50;13.95;;;2.90;99.90;;;;;;6155749;23;20013;-88
2021/01/05 09:14:19;;;;;;;20.65;15.48;;;3.00;99.90;;;;;;6156776;23;20017;-87
2021/01/05 09:16:46;;;;;;;22.17;14.98;;;3.00;99.90;;;;;;6154499;23;20022;-88
2021/01/05 09:19:12;;;;;;;23.15;15.38;;;3.10;99.90;;;;;;6156029;23;20513;-87
2021/01/05 09:21:39;;;;;;;19.05;14.88;;;3.10;99.90;;;;;;6154816;23;20018;-87
2021/01/05 09:24:06;;;;;;;19.30;14.35;;;3.20;99.90;;;;;;6154610;23;20068;-86
2021/01/05 09:26:35;;;;;;;18.75;13.80;;;3.30;99.90;;;;;;6154826;23;20025;-87
2021/01/05 09:29:04;;;;;;;16.70;13.68;;;3.40;99.90;;;;;;6155271;23;20017;-90
2021/01/05 09:31:31;;;;;;;15.93;12.93;;;3.40;99.90;;;;;;6154865;23;20072;-87
2021/01/05 09:33:58;;;;;;;15.43;12.63;;;3.50;99.90;;;;;;6154824;23;20033;-88
2021/01/05 09:36:34;;;;;;;14.13;11.52;;;3.50;99.90;;;;;;6154505;23;20025;-88
2021/01/05 09:39:07;;;;;;;11.10;7.80;;;3.60;99.90;;;;;;6154638;23;20079;-88
2021/01/05 09:41:49;;;;;;;12.93;9.55;;;3.70;99.90;;;;;;6156456;23;20013;-87
2021/01/05 09:44:16;;;;;;;12.70;10.25;;;3.90;99.90;;;;;;6153853;23;20017;-87
2021/01/05 09:46:48;;;;;;;13.45;9.98;;;4.00;99.90;;;;;;6154530;23;20044;-87
2021/01/05 09:49:15;;;;;;;11.07;9.55;;;4.10;99.90;;;;;;6154460;23;20378;-88
2021/01/05 09:51:41;;;;;;;11.68;9.30;;;4.10;99.90;;;;;;6154611;23;20025;-87
2021/01/05 09:54:16;;;;;;;11.05;9.00;;;4.20;99.90;;;;;;6155996;23;20074;-88
2021/01/05 09:56:52;;;;;;;9.93;8.63;;;4.30;99.90;;;;;;6155165;23;20076;-88
2021/01/05 09:59:20;;;;;;;11.60;8.88;;;4.30;99.90;;;;;;6154932;23;20017;-87
2021/01/05 10:01:47;;;;;;;11.05;9.25;;;4.40;99.90;;;;;;6155355;23;20028;-87
2021/01/05 10:04:15;;;;;;;10.10;8.43;;;4.50;99.90;;;;;;6154529;23;20020;-87
2021/01/05 10:06:42;;;;;;;12.27;9.50;;;4.50;99.90;;;;;;6154193;23;20028;-87
2021/01/05 10:09:09;;;;;;;10.13;8.07;;;4.60;99.90;;;;;;6156991;23;20029;-88
2021/01/05 10:11:42;;;;;;;11.45;8.52;;;4.70;99.90;;;;;;6163588;23;20021;-87
2021/01/05 10:14:11;;;;;;;10.95;8.25;;;4.90;99.90;;;;;;6167038;23;20018;-88
2021/01/05 10:16:38;;;;;;;;;;;4.90;99.90;;;;;;6155758;23;20021;-88
2021/01/05 10:19:05;;;;;;;10.40;7.65;;;5.00;99.90;;;;;;6178739;23;19917;-88
2021/01/05 10:21:37;;;;;;;9.90;8.38;;;5.00;99.90;;;;;;6154543;23;20017;-88
2021/01/05 10:24:06;;;;;;;10.80;8.60;;;5.10;99.90;;;;;;6154541;23;20021;-87
2021/01/05 10:26:33;;;;;;;;;;;5.20;99.90;;;;;;6155074;23;20088;-87
2021/01/05 10:29:00;;;;;;;7.93;6.63;;;5.20;99.90;;;;;;6154368;23;19978;-88
2021/01/05 10:31:35;;;;;;;8.43;6.95;;;5.20;99.90;;;;;;6154488;23;20083;-88
2021/01/05 10:34:01;;;;;;;8.20;6.72;;;5.30;99.90;;;;;;6153996;23;20018;-89
2021/01/05 10:36:28;;;;;;;9.13;7.35;;;5.30;99.90;;;;;;6154638;23;20021;-87
2021/01/05 10:39:10;;;;;;;9.48;6.90;;;5.40;99.90;;;;;;6154252;23;20333;-89
2021/01/05 10:41:42;;;;;;;8.32;6.18;;;5.40;99.90;;;;;;6154663;23;20022;-88
2021/01/05 10:44:10;;;;;;;9.07;6.50;;;5.50;99.90;;;;;;6153508;23;20014;-88
2021/01/05 10:46:36;;;;;;;7.93;6.15;;;5.60;99.90;;;;;;6154081;23;20025;-88
2021/01/05 10:49:03;;;;;;;9.27;6.60;;;5.60;99.90;;;;;;6155710;23;20087;-87
2021/01/05 10:51:30;;;;;;;7.18;5.80;;;5.70;99.90;;;;;;6154009;23;20033;-89
2021/01/05 10:53:57;;;;;;;7.53;5.43;;;5.70;99.90;;;;;;6155072;23;20014;-87
2021/01/05 10:56:24;;;;;;;7.78;5.90;;;5.70;99.90;;;;;;6155294;23;20357;-87
2021/01/05 10:58:51;;;;;;;5.97;5.38;;;5.70;99.90;;;;;;6155645;23;20014;-87
2021/01/05 11:01:17;;;;;;;6.05;5.22;;;5.80;99.90;;;;;;6154225;23;20021;-87
2021/01/05 11:03:44;;;;;;;6.45;5.10;;;5.80;99.90;;;;;;6155506;23;20070;-87
2021/01/05 11:06:10;;;;;;;5.95;5.32;;;5.80;99.90;;;;;;6154331;23;20021;-87
2021/01/05 11:08:37;;;;;;;6.38;5.68;;;6.00;99.90;;;;;;6155635;23;20471;-87
2021/01/05 11:11:05;;;;;;;5.80;4.53;;;5.90;99.90;;;;;;6154455;23;20330;-87
2021/01/05 11:13:32;;;;;;;6.45;5.05;;;6.00;99.90;;;;;;6154590;23;20026;-87
2021/01/05 11:15:58;;;;;;;5.57;4.50;;;6.10;99.90;;;;;;6154313;23;20021;-88
2021/01/05 11:18:25;;;;;;;5.18;3.88;;;6.20;99.90;;;;;;6156459;23;20085;-87
2021/01/05 11:20:52;;;;;;;5.95;4.47;;;6.20;99.90;;;;;;6157658;23;20084;-89
2021/01/05 11:23:18;;;;;;;5.75;4.25;;;6.20;99.90;;;;;;6156026;23;20013;-87
2021/01/05 11:25:45;;;;;;;6.38;4.25;;;6.20;99.90;;;;;;6156361;23;20180;-86
2021/01/05 11:28:12;;;;;;;4.75;3.42;;;6.20;99.90;;;;;;6166119;23;20024;-87
2021/01/05 11:30:38;;;;;;;4.28;3.53;;;6.10;99.90;;;;;;6167869;23;20025;-87
2021/01/05 11:33:06;;;;;;;4.25;2.97;;;6.10;99.90;;;;;;6158111;23;20025;-87
2021/01/05 11:35:33;;;;;;;4.45;3.60;;;6.10;99.90;;;;;;6158020;23;20029;-88
2021/01/05 11:37:59;;;;;;;5.03;3.28;;;6.00;99.90;;;;;;6155630;23;20317;-87
2021/01/05 11:40:26;;;;;;;5.57;3.40;;;6.00;99.90;;;;;;6155648;23;20021;-87
2021/01/05 11:42:54;;;;;;;3.40;2.80;;;6.00;99.90;;;;;;6157159;23;20021;-87
2021/01/05 11:45:21;;;;;;;3.50;2.70;;;5.90;99.90;;;;;;6156901;23;20072;-87
2021/01/05 11:47:49;;;;;;;4.28;2.90;;;6.00;99.90;;;;;;6158716;23;20029;-88
2021/01/05 11:50:17;;;;;;;3.55;2.60;;;5.90;99.90;;;;;;6155835;23;20442;-88
2021/01/05 11:52:44;;;;;;;4.13;2.53;;;5.90;99.90;;;;;;6156004;23;20029;-87
2021/01/05 11:55:11;;;;;;;3.53;2.15;;;5.90;99.90;;;;;;6155356;23;20021;-87
2021/01/05 11:57:38;;;;;;;3.03;1.77;;;6.00;99.90;;;;;;6153840;23;20021;-89
2021/01/05 12:00:08;;;;;;;2.85;1.85;;;6.10;99.90;;;;;;6152709;23;20017;-87
2021/01/05 12:02:35;;;;;;;2.60;1.58;;;6.10;99.90;;;;;;6154329;23;20013;-87
2021/01/05 12:05:01;;;;;;;3.38;1.75;;;6.20;99.90;;;;;;6153316;23;20018;-87
2021/01/05 12:07:28;;;;;;;2.53;1.65;;;6.30;99.90;;;;;;6152871;23;20025;-89
2021/01/05 12:09:55;;;;;;;2.03;1.42;;;6.30;99.90;;;;;;6152791;23;20399;-87
2021/01/05 12:12:22;;;;;;;1.33;1.20;;;6.30;99.90;;;;;;6154291;23;20017;-89
2021/01/05 12:14:48;;;;;;;3.13;1.33;;;6.40;99.90;;;;;;6152648;23;20096;-88
2021/01/05 12:17:15;;;;;;;1.35;1.20;;;6.40;99.90;;;;;;6152703;23;20434;-87
2021/01/05 12:19:43;;;;;;;2.60;1.30;;;6.40;99.90;;;;;;6155058;23;20013;-89
2021/01/05 12:22:11;;;;;;;2.35;1.10;;;6.30;99.90;;;;;;6155210;23;20458;-87
2021/01/05 12:24:38;;;;;;;2.13;1.30;;;6.30;99.90;;;;;;6156603;23;20021;-89
2021/01/05 12:27:07;;;;;;;2.22;1.63;;;6.30;99.90;;;;;;6155172;23;20021;-88
2021/01/05 12:29:37;;;;;;;4.25;1.30;;;6.30;99.90;;;;;;6155601;23;20020;-90
2021/01/05 12:32:03;;;;;;;3.65;1.23;;;6.40;99.90;;;;;;6156119;23;20457;-87
2021/01/05 12:34:33;;;;;;;1.67;0.98;;;6.40;99.90;;;;;;6155064;23;20018;-90
2021/01/05 12:37:04;;;;;;;1.40;0.90;;;6.40;99.90;;;;;;6155277;23;20025;-90
2021/01/05 12:39:32;;;;;;;3.50;1.00;;;6.40;99.90;;;;;;6156203;23;20380;-89
2021/01/05 12:42:01;;;;;;;2.25;0.90;;;6.40;99.90;;;;;;6157446;23;20024;-89
2021/01/05 12:44:31;;;;;;;1.77;0.90;;;6.40;99.90;;;;;;6170558;23;20085;-89
2021/01/05 12:46:57;;;;;;;1.80;0.95;;;6.40;99.90;;;;;;6158173;23;20021;-91
2021/01/05 12:49:24;;;;;;;1.50;0.70;;;6.40;99.90;;;;;;6155169;23;20108;-89
2021/01/05 12:51:51;;;;;;;1.25;0.75;;;6.40;99.90;;;;;;6156465;23;20022;-89
2021/01/05 12:54:25;;;;;;;1.20;0.80;;;6.30;99.90;;;;;;6155664;23;20072;-90
2021/01/05 12:57:04;;;;;;;1.15;0.65;;;6.30;99.90;;;;;;6155255;23;20021;-89
2021/01/05 12:59:31;;;;;;;1.33;0.60;;;6.30;99.90;;;;;;6155330;23;20013;-89
2021/01/05 13:02:06;;;;;;;2.35;0.95;;;6.20;99.90;;;;;;6154900;23;20339;-89
2021/01/05 13:04:33;;;;;;;2.75;0.80;;;6.10;99.90;;;;;;6154904;23;20014;-89